createdAt,value
2018-04-17T00:00:06.254Z,9.80
2018-04-17T00:02:34.534Z,9.77
2018-04-17T00:05:02.793Z,9.74
2018-04-17T00:07:31.094Z,9.09
2018-04-17T00:09:59.356Z,8.75
2018-04-17T00:12:27.637Z,8.71
2018-04-17T00:14:55.931Z,8.93
2018-04-17T00:17:24.208Z,9.06
2018-04-17T00:19:52.488Z,9.05
2018-04-17T00:22:21.523Z,9.14
2018-04-17T00:24:50.589Z,8.98
2018-04-17T00:27:18.862Z,8.67
2018-04-17T00:29:47.152Z,8.71
2018-04-17T00:32:15.424Z,8.80
2018-04-17T00:34:43.689Z,8.75
2018-04-17T00:37:12.768Z,8.65
2018-04-17T00:39:41.028Z,8.43
2018-04-17T00:42:09.324Z,8.33
2018-04-17T00:44:37.597Z,8.52
2018-04-17T00:47:05.908Z,8.61
2018-04-17T00:49:34.228Z,8.67
2018-04-17T00:52:02.503Z,8.66
2018-04-17T00:54:30.784Z,8.58
2018-04-17T00:56:59.073Z,8.63
2018-04-17T00:59:27.333Z,8.58
2018-04-17T01:01:55.649Z,8.15
2018-04-17T01:04:23.920Z,8.17
2018-04-17T01:06:52.208Z,8.24
2018-04-17T01:09:20.463Z,8.17
2018-04-17T01:11:48.760Z,8.09
2018-04-17T01:14:17.016Z,8.16
2018-04-17T01:16:45.284Z,8.16
2018-04-17T01:19:13.700Z,8.14
2018-04-17T01:21:41.968Z,8.10
2018-04-17T01:24:10.244Z,8.14
2018-04-17T01:26:38.515Z,8.18
2018-04-17T01:29:06.787Z,8.09
2018-04-17T01:31:35.840Z,8.03
2018-04-17T01:34:04.107Z,7.71
2018-04-17T01:36:32.396Z,7.76
2018-04-17T01:39:00.669Z,7.82
2018-04-17T01:41:28.942Z,7.87
2018-04-17T01:43:57.226Z,7.98
2018-04-17T01:46:25.513Z,8.08
2018-04-17T01:48:53.795Z,8.07
2018-04-17T01:51:22.060Z,8.09
2018-04-17T01:53:50.321Z,8.14
2018-04-17T01:56:18.609Z,8.11
2018-04-17T01:58:46.869Z,8.10
2018-04-17T02:01:15.148Z,8.05
2018-04-17T02:03:43.423Z,8.04
2018-04-17T02:06:11.701Z,7.88
2018-04-17T02:08:39.986Z,7.81
2018-04-17T02:11:08.264Z,7.53
2018-04-17T02:13:36.572Z,7.21
2018-04-17T02:16:04.852Z,7.25
2018-04-17T02:18:33.118Z,7.36
2018-04-17T02:21:01.395Z,7.42
2018-04-17T02:23:29.672Z,7.47
2018-04-17T02:25:57.952Z,7.54
2018-04-17T02:28:26.263Z,7.51
2018-04-17T02:30:54.543Z,7.31
2018-04-17T02:33:23.589Z,7.11
2018-04-17T02:35:51.863Z,7.14
2018-04-17T02:38:20.148Z,7.20
2018-04-17T02:40:48.406Z,7.25
2018-04-17T02:43:16.669Z,7.19
2018-04-17T02:45:44.955Z,6.99
2018-04-17T02:48:13.232Z,7.12
2018-04-17T02:50:41.544Z,7.23
2018-04-17T02:53:09.812Z,7.22
2018-04-17T02:55:39.929Z,7.13
2018-04-17T02:58:08.212Z,6.75
2018-04-17T03:00:37.236Z,6.87
2018-04-17T03:03:06.308Z,6.95
2018-04-17T03:05:34.655Z,6.94
2018-04-17T03:08:02.923Z,6.88
2018-04-17T03:10:31.220Z,6.90
2018-04-17T03:13:00.324Z,6.94
2018-04-17T03:15:28.622Z,6.97
2018-04-17T03:17:56.915Z,6.99
2018-04-17T03:20:25.940Z,7.08
2018-04-17T03:22:54.219Z,7.09
2018-04-17T03:25:22.483Z,7.03
2018-04-17T03:27:50.777Z,6.94
2018-04-17T03:30:19.044Z,6.78
2018-04-17T03:32:47.319Z,6.53
2018-04-17T03:35:15.595Z,6.41
2018-04-17T03:37:43.872Z,6.47
2018-04-17T03:40:12.156Z,6.46
2018-04-17T03:42:40.428Z,6.55
2018-04-17T03:45:08.685Z,6.59
2018-04-17T03:47:36.968Z,6.50
2018-04-17T03:50:05.244Z,6.39
2018-04-17T03:52:33.541Z,6.20
2018-04-17T03:55:01.796Z,6.33
2018-04-17T03:57:30.062Z,6.40
2018-04-17T03:59:58.352Z,6.42
2018-04-17T04:02:26.650Z,6.48
2018-04-17T04:04:54.909Z,6.49
2018-04-17T04:07:23.195Z,6.52
2018-04-17T04:09:51.455Z,6.49
2018-04-17T04:12:19.729Z,6.45
2018-04-17T04:14:48.009Z,6.31
2018-04-17T04:20:46.892Z,6.23
2018-04-17T04:23:33.584Z,6.24
2018-04-17T04:29:10.659Z,5.85
2018-04-17T04:31:38.975Z,5.81
2018-04-17T04:34:07.241Z,5.92
2018-04-17T04:36:35.500Z,6.00
2018-04-17T04:39:03.785Z,6.10
2018-04-17T04:41:32.065Z,6.19
2018-04-17T04:44:00.363Z,6.31
2018-04-17T04:46:29.414Z,6.41
2018-04-17T04:48:57.677Z,6.49
2018-04-17T04:51:25.973Z,6.32
2018-04-17T04:53:54.287Z,6.28
2018-04-17T04:56:23.311Z,6.40
2018-04-17T04:58:51.580Z,6.43
2018-04-17T05:01:19.872Z,6.58
2018-04-17T05:03:48.180Z,6.69
2018-04-17T05:06:16.445Z,6.58
2018-04-17T05:08:44.883Z,6.71
2018-04-17T05:11:13.157Z,6.87
2018-04-17T05:13:42.198Z,7.00
2018-04-17T05:16:11.281Z,7.08
2018-04-17T05:18:39.536Z,7.03
2018-04-17T05:21:07.800Z,7.14
2018-04-17T05:23:36.832Z,7.24
2018-04-17T05:26:05.103Z,7.37
2018-04-17T05:28:33.391Z,7.49
2018-04-17T05:31:01.673Z,7.52
2018-04-17T05:33:29.955Z,7.63
2018-04-17T05:35:58.236Z,7.74
2018-04-17T05:38:26.504Z,7.84
2018-04-17T05:40:54.774Z,7.91
2018-04-17T05:43:23.088Z,8.00
2018-04-17T05:45:52.137Z,8.08
2018-04-17T05:48:20.414Z,8.21
2018-04-17T05:50:48.687Z,8.28
2018-04-17T05:53:16.969Z,8.29
2018-04-17T05:55:45.247Z,8.37
2018-04-17T05:58:13.505Z,8.44
2018-04-17T06:00:41.797Z,8.64
2018-04-17T06:03:10.059Z,8.74
2018-04-17T06:05:38.332Z,8.85
2018-04-17T06:08:06.615Z,8.98
2018-04-17T06:10:34.883Z,9.10
2018-04-17T06:13:03.144Z,9.26
2018-04-17T06:15:31.435Z,9.35
2018-04-17T06:17:59.696Z,9.47
2018-04-17T06:20:27.951Z,9.56
2018-04-17T06:22:57.018Z,9.64
2018-04-17T06:25:25.296Z,9.70
2018-04-17T06:27:53.622Z,9.79
2018-04-17T06:30:21.899Z,9.91
2018-04-17T06:32:50.169Z,9.98
2018-04-17T06:35:18.481Z,10.11
2018-04-17T06:37:46.770Z,10.16
2018-04-17T06:40:15.039Z,10.13
2018-04-17T06:42:43.316Z,10.26
2018-04-17T06:45:11.613Z,10.20
2018-04-17T06:47:39.959Z,10.27
2018-04-17T06:50:08.200Z,10.46
2018-04-17T06:52:36.560Z,10.54
2018-04-17T06:55:04.827Z,10.65
2018-04-17T06:57:33.106Z,10.71
2018-04-17T07:00:01.424Z,10.78
2018-04-17T07:02:29.713Z,10.89
2018-04-17T07:04:57.980Z,10.97
2018-04-17T07:07:26.303Z,10.91
2018-04-17T07:09:54.592Z,11.05
2018-04-17T07:12:22.863Z,11.19
2018-04-17T07:14:51.148Z,11.34
2018-04-17T07:17:19.420Z,11.49
2018-04-17T07:19:47.708Z,11.70
2018-04-17T07:22:16.826Z,11.84
2018-04-17T07:24:45.161Z,11.65
2018-04-17T07:27:14.205Z,11.87
2018-04-17T07:29:42.503Z,12.11
2018-04-17T07:32:10.800Z,12.21
2018-04-17T07:34:39.091Z,12.39
2018-04-17T07:37:07.391Z,12.54
2018-04-17T07:39:36.460Z,12.74
2018-04-17T07:42:04.738Z,12.93
2018-04-17T07:44:33.032Z,12.98
2018-04-17T07:47:17.897Z,13.05
2018-04-17T07:49:46.958Z,13.28
2018-04-17T07:52:15.232Z,13.53
2018-04-17T07:54:43.510Z,13.72
2018-04-17T07:57:11.888Z,13.94
2018-04-17T07:59:40.179Z,14.13
2018-04-17T08:02:08.456Z,14.32
2018-04-17T08:04:36.740Z,14.53
2018-04-17T08:07:05.012Z,14.57
2018-04-17T08:09:33.342Z,14.68
2018-04-17T08:12:01.709Z,14.73
2018-04-17T08:14:30.012Z,14.85
2018-04-17T08:16:58.303Z,14.88
2018-04-17T08:19:26.628Z,14.98
2018-04-17T08:21:54.903Z,15.32
2018-04-17T08:24:23.224Z,15.48
2018-04-17T08:26:51.524Z,15.34
2018-04-17T08:29:19.794Z,15.68
2018-04-17T08:31:48.075Z,15.79
2018-04-17T08:34:16.372Z,16.04
2018-04-17T08:36:45.479Z,16.27
2018-04-17T08:39:13.712Z,16.47
2018-04-17T08:41:42.003Z,16.32
2018-04-17T08:44:10.322Z,16.39
2018-04-17T08:46:38.597Z,16.66
2018-04-17T08:49:06.912Z,16.92
2018-04-17T08:51:35.231Z,16.99
2018-04-17T08:54:03.504Z,17.10
2018-04-17T08:56:32.565Z,17.18
2018-04-17T08:59:00.836Z,17.41
2018-04-17T09:01:29.107Z,17.56
2018-04-17T09:03:57.384Z,17.55
2018-04-17T09:06:25.659Z,17.70
2018-04-17T09:08:53.930Z,17.92
2018-04-17T09:11:22.224Z,18.15
2018-04-17T09:13:50.503Z,18.29
2018-04-17T09:16:18.776Z,18.39
2018-04-17T09:18:47.059Z,18.54
2018-04-17T09:21:15.336Z,18.68
2018-04-17T09:23:43.669Z,18.95
2018-04-17T09:26:11.949Z,19.05
2018-04-17T09:28:40.218Z,19.04
2018-04-17T09:31:08.484Z,19.04
2018-04-17T09:33:36.764Z,19.17
2018-04-17T09:36:05.261Z,19.06
2018-04-17T09:38:34.275Z,18.80
2018-04-17T09:41:02.564Z,18.82
2018-04-17T09:43:30.835Z,18.86
2018-04-17T09:45:59.112Z,19.03
2018-04-17T09:48:28.170Z,18.65
2018-04-17T09:50:56.439Z,18.93
2018-04-17T09:53:24.708Z,18.82
2018-04-17T09:55:53.072Z,19.11
2018-04-17T09:58:22.101Z,19.39
2018-04-17T10:00:56.008Z,19.69
2018-04-17T10:03:24.283Z,19.98
2018-04-17T10:05:52.544Z,20.01
2018-04-17T10:08:20.845Z,20.18
2018-04-17T10:10:49.129Z,20.28
2018-04-17T10:13:17.400Z,20.13
2018-04-17T10:15:45.716Z,20.05
2018-04-17T10:18:14.037Z,20.00
2018-04-17T10:20:42.321Z,20.16
2018-04-17T10:23:10.679Z,20.25
2018-04-17T10:25:38.955Z,20.06
2018-04-17T10:28:07.220Z,20.08
2018-04-17T10:30:36.287Z,20.37
2018-04-17T10:33:04.593Z,20.57
2018-04-17T10:35:33.687Z,21.13
2018-04-17T10:38:02.739Z,21.33
2018-04-17T10:40:31.783Z,21.40
2018-04-17T10:43:00.832Z,21.30
2018-04-17T10:45:29.140Z,21.18
2018-04-17T10:47:57.469Z,21.05
2018-04-17T10:50:25.765Z,21.34
2018-04-17T10:52:54.058Z,21.32
2018-04-17T10:55:22.327Z,21.32
2018-04-17T10:57:50.620Z,21.64
2018-04-17T11:00:18.904Z,21.49
2018-04-17T11:02:47.959Z,21.51
2018-04-17T11:05:16.283Z,21.69
2018-04-17T11:07:46.253Z,21.99
2018-04-17T11:10:14.520Z,22.10
2018-04-17T11:12:44.529Z,22.10
2018-04-17T11:15:12.805Z,21.91
2018-04-17T11:17:41.096Z,22.17
2018-04-17T11:20:09.476Z,22.37
2018-04-17T11:22:37.765Z,22.45
2018-04-17T11:25:06.046Z,22.03
2018-04-17T11:27:34.332Z,21.82
2018-04-17T11:30:02.619Z,21.04
2018-04-17T11:32:31.664Z,21.08
2018-04-17T11:34:59.936Z,21.56
2018-04-17T11:37:28.237Z,21.99
2018-04-17T11:39:56.500Z,21.44
2018-04-17T11:42:24.803Z,21.45
2018-04-17T11:44:53.088Z,21.57
2018-04-17T11:47:22.176Z,21.27
2018-04-17T11:49:50.446Z,21.23
2018-04-17T11:52:18.740Z,20.79
2018-04-17T11:54:47.829Z,20.64
2018-04-17T11:57:16.116Z,21.13
2018-04-17T11:59:45.191Z,21.18
2018-04-17T12:02:13.488Z,21.35
2018-04-17T12:04:42.524Z,21.58
2018-04-17T12:07:10.824Z,21.99
2018-04-17T12:09:39.100Z,22.03
2018-04-17T12:12:07.394Z,22.05
2018-04-17T12:14:35.689Z,22.34
2018-04-17T12:17:04.738Z,22.64
2018-04-17T12:19:33.796Z,23.06
2018-04-17T12:22:02.133Z,23.47
2018-04-17T12:24:30.397Z,23.04
2018-04-17T12:26:58.689Z,23.18
2018-04-17T12:29:27.051Z,23.00
2018-04-17T12:31:55.329Z,23.30
2018-04-17T12:34:23.624Z,23.87
2018-04-17T12:36:51.953Z,24.22
2018-04-17T12:39:20.227Z,24.08
2018-04-17T12:41:48.501Z,23.98
2018-04-17T12:44:16.791Z,24.30
2018-04-17T12:46:45.079Z,24.38
2018-04-17T12:49:13.363Z,23.78
2018-04-17T12:51:41.689Z,23.45
2018-04-17T12:54:09.950Z,23.64
2018-04-17T12:56:38.996Z,23.45
2018-04-17T12:59:07.331Z,23.63
2018-04-17T13:01:35.604Z,23.71
2018-04-17T13:04:04.673Z,24.30
2018-04-17T13:06:32.961Z,24.96
2018-04-17T13:09:01.235Z,25.04
2018-04-17T13:11:29.515Z,25.29
2018-04-17T13:13:58.587Z,25.52
2018-04-17T13:16:26.869Z,26.36
2018-04-17T13:18:55.141Z,26.95
2018-04-17T13:21:23.446Z,26.58
2018-04-17T13:23:52.583Z,26.20
2018-04-17T13:26:20.873Z,26.61
2018-04-17T13:28:49.156Z,26.44
2018-04-17T13:31:17.508Z,26.61
2018-04-17T13:33:45.788Z,26.81
2018-04-17T13:36:14.080Z,26.78
2018-04-17T13:38:42.349Z,27.28
2018-04-17T13:41:10.633Z,27.70
2018-04-17T13:43:38.914Z,27.67
2018-04-17T13:46:07.180Z,28.95
2018-04-17T13:48:35.457Z,29.83
2018-04-17T13:51:03.752Z,28.94
2018-04-17T13:53:32.025Z,29.51
2018-04-17T13:56:00.298Z,30.59
2018-04-17T13:58:28.590Z,30.74
2018-04-17T14:00:56.852Z,29.32
2018-04-17T14:03:25.180Z,29.58
2018-04-17T14:05:53.477Z,29.30
2018-04-17T14:08:21.768Z,28.94
2018-04-17T14:10:50.036Z,28.80
2018-04-17T14:13:18.332Z,28.65
2018-04-17T14:15:46.615Z,28.93
2018-04-17T14:18:14.880Z,29.51
2018-04-17T14:20:43.176Z,29.79
2018-04-17T14:23:11.452Z,29.13
2018-04-17T14:25:39.725Z,29.12
2018-04-17T14:28:08.054Z,29.59
2018-04-17T14:30:36.365Z,30.69
2018-04-17T14:33:04.629Z,30.12
2018-04-17T14:35:33.048Z,30.71
2018-04-17T14:38:01.344Z,30.98
2018-04-17T14:40:30.394Z,31.09
2018-04-17T14:42:58.675Z,29.54
2018-04-17T14:45:26.945Z,30.49
2018-04-17T14:47:55.222Z,31.20
2018-04-17T14:50:23.511Z,31.31
2018-04-17T14:52:51.780Z,31.92
2018-04-17T14:55:20.049Z,32.76
2018-04-17T14:57:48.338Z,33.24
2018-04-17T15:00:16.624Z,33.38
2018-04-17T15:02:44.933Z,34.13
2018-04-17T15:05:13.975Z,33.50
2018-04-17T15:07:42.252Z,32.98
2018-04-17T15:10:10.532Z,32.07
2018-04-17T15:12:38.816Z,31.80
2018-04-17T15:15:07.091Z,31.65
2018-04-17T15:17:35.352Z,31.87
2018-04-17T15:20:03.676Z,32.21
2018-04-17T15:22:32.731Z,32.27
2018-04-17T15:25:01.004Z,32.32
2018-04-17T15:27:29.320Z,32.92
2018-04-17T15:29:58.357Z,32.73
2018-04-17T15:32:26.624Z,32.76
2018-04-17T15:34:54.925Z,32.96
2018-04-17T15:37:23.212Z,32.19
2018-04-17T15:39:51.475Z,32.47
2018-04-17T15:42:19.794Z,32.09
2018-04-17T15:44:48.072Z,32.43
2018-04-17T15:47:17.127Z,31.70
2018-04-17T15:49:46.231Z,30.90
2018-04-17T15:52:14.520Z,31.51
2018-04-17T15:54:42.785Z,31.68
2018-04-17T15:57:11.096Z,31.30
2018-04-17T15:59:40.151Z,30.62
2018-04-17T16:02:08.428Z,28.46
2018-04-17T16:04:36.732Z,28.49
2018-04-17T16:07:05.000Z,29.33
2018-04-17T16:09:33.283Z,30.73
2018-04-17T16:12:01.593Z,31.11
2018-04-17T16:14:29.871Z,30.00
2018-04-17T16:16:58.466Z,29.44
2018-04-17T16:19:26.753Z,29.29
2018-04-17T16:21:55.045Z,28.76
2018-04-17T16:24:23.317Z,28.40
2018-04-17T16:26:51.619Z,28.15
2018-04-17T16:29:19.916Z,27.74
2018-04-17T16:31:48.961Z,27.82
2018-04-17T16:34:17.253Z,27.98
2018-04-17T16:36:45.527Z,27.86
2018-04-17T16:39:13.800Z,27.79
2018-04-17T16:41:42.106Z,27.03
2018-04-17T16:44:10.383Z,26.91
2018-04-17T16:46:39.440Z,26.90
2018-04-17T16:49:07.738Z,27.00
2018-04-17T16:51:36.012Z,27.09
2018-04-17T16:54:04.309Z,27.54
2018-04-17T16:56:33.355Z,27.49
2018-04-17T16:59:01.616Z,27.61
2018-04-17T17:01:29.935Z,27.47
2018-04-17T17:03:58.217Z,27.33
2018-04-17T17:06:26.528Z,27.73
2018-04-17T17:08:54.820Z,28.41
2018-04-17T17:11:23.098Z,28.64
2018-04-17T17:13:51.369Z,28.87
2018-04-17T17:16:20.923Z,28.80
2018-04-17T17:18:50.719Z,28.86
2018-04-17T17:21:20.235Z,29.21
2018-04-17T17:23:48.505Z,28.47
2018-04-17T17:26:16.772Z,28.16
2018-04-17T17:28:45.108Z,27.43
2018-04-17T17:31:14.133Z,27.07
2018-04-17T17:33:42.421Z,26.71
2018-04-17T17:36:10.709Z,26.51
2018-04-17T17:38:38.979Z,26.30
2018-04-17T17:41:07.332Z,26.08
2018-04-17T17:43:35.625Z,25.68
2018-04-17T17:46:03.984Z,25.47
2018-04-17T17:48:32.259Z,25.31
2018-04-17T17:51:00.555Z,25.07
2018-04-17T17:53:28.878Z,24.85
2018-04-17T17:55:57.923Z,24.62
2018-04-17T17:58:26.221Z,24.38
2018-04-17T18:00:54.736Z,24.11
2018-04-17T18:03:23.781Z,23.84
2018-04-17T18:05:52.070Z,23.21
2018-04-17T18:08:20.365Z,22.60
2018-04-17T18:10:48.675Z,22.40
2018-04-17T18:13:17.741Z,22.29
2018-04-17T18:15:46.056Z,22.10
2018-04-17T18:18:14.375Z,21.89
2018-04-17T18:20:42.693Z,21.69
2018-04-17T18:23:11.823Z,21.42
2018-04-17T18:25:40.166Z,21.01
2018-04-17T18:28:09.305Z,20.58
2018-04-17T18:30:37.705Z,20.19
2018-04-17T18:33:06.114Z,20.12
2018-04-17T18:35:35.974Z,19.85
2018-04-17T18:38:05.240Z,19.67
2018-04-17T18:40:34.617Z,19.40
2018-04-17T18:43:03.694Z,19.10
2018-04-17T18:45:33.006Z,18.74
2018-04-17T18:48:01.707Z,18.73
2018-04-17T18:50:30.880Z,18.50
2018-04-17T18:53:00.187Z,18.39
2018-04-17T18:55:29.449Z,18.39
2018-04-17T18:57:58.741Z,18.24
2018-04-17T19:00:28.171Z,18.20
2018-04-17T19:02:57.515Z,18.12
2018-04-17T19:05:26.712Z,17.95
2018-04-17T19:07:56.080Z,17.81
2018-04-17T19:10:26.249Z,17.24
2018-04-17T19:12:56.448Z,17.36
2018-04-17T19:15:25.709Z,17.43
2018-04-17T19:17:55.073Z,17.44
2018-04-17T19:20:25.280Z,17.46
2018-04-17T19:22:54.599Z,17.36
2018-04-17T19:25:24.885Z,17.28
2018-04-17T19:27:54.342Z,17.18
2018-04-17T19:30:23.942Z,17.06
2018-04-17T19:32:54.248Z,17.10
2018-04-17T19:35:24.434Z,17.09
2018-04-17T19:37:53.806Z,17.07
2018-04-17T19:40:23.079Z,17.02
2018-04-17T19:42:54.082Z,16.97
2018-04-17T19:45:23.412Z,16.92
2018-04-17T19:47:53.667Z,16.92
2018-04-17T19:50:23.067Z,16.86
2018-04-17T19:52:52.398Z,16.79
2018-04-17T19:55:21.827Z,16.75
2018-04-17T19:57:52.163Z,16.68
2018-04-17T20:00:23.200Z,16.64
2018-04-17T20:02:52.561Z,16.44
2018-04-17T20:05:21.834Z,15.96
2018-04-17T20:07:51.199Z,15.37
2018-04-17T20:10:20.519Z,15.18
2018-04-17T20:12:50.670Z,15.26
2018-04-17T20:15:19.923Z,15.46
2018-04-17T20:17:49.211Z,15.57
2018-04-17T20:20:18.578Z,15.63
2018-04-17T20:22:47.850Z,15.58
2018-04-17T20:25:17.062Z,15.59
2018-04-17T20:27:47.165Z,15.54
2018-04-17T20:30:17.167Z,15.08
2018-04-17T20:32:46.561Z,15.21
2018-04-17T20:35:15.800Z,15.24
2018-04-17T20:37:45.459Z,15.19
2018-04-17T20:40:14.905Z,15.15
2018-04-17T20:42:43.964Z,15.12
2018-04-17T20:45:13.203Z,14.56
2018-04-17T20:47:42.449Z,14.46
2018-04-17T20:50:11.597Z,14.45
2018-04-17T20:52:40.477Z,14.58
2018-04-17T20:55:08.841Z,14.69
2018-04-17T20:57:37.151Z,14.73
2018-04-17T21:00:05.455Z,14.80
2018-04-17T21:02:33.740Z,14.78
2018-04-17T21:05:02.061Z,14.79
2018-04-17T21:07:30.363Z,14.74
2018-04-17T21:09:58.631Z,14.65
2018-04-17T21:12:26.900Z,14.49
2018-04-17T21:14:55.184Z,13.80
2018-04-17T21:17:23.453Z,13.74
2018-04-17T21:19:51.736Z,13.84
2018-04-17T21:22:20.029Z,13.79
2018-04-17T21:24:48.309Z,13.65
2018-04-17T21:27:16.596Z,13.74
2018-04-17T21:29:44.885Z,13.81
2018-04-17T21:32:13.180Z,13.82
2018-04-17T21:34:42.220Z,13.87
2018-04-17T21:37:10.523Z,13.90
2018-04-17T21:39:38.788Z,13.89
2018-04-17T21:42:07.101Z,13.82
2018-04-17T21:44:36.178Z,13.64
2018-04-17T21:47:04.508Z,12.97
2018-04-17T21:49:33.514Z,12.96
2018-04-17T21:52:01.876Z,12.93
2018-04-17T21:54:30.141Z,12.99
2018-04-17T21:56:58.483Z,13.14
2018-04-17T21:59:26.782Z,13.27
2018-04-17T22:01:55.843Z,13.37
2018-04-17T22:04:24.131Z,13.35
2018-04-17T22:06:53.216Z,13.24
2018-04-17T22:09:21.598Z,13.02
2018-04-17T22:11:49.893Z,12.83
2018-04-17T22:14:18.962Z,12.70
2018-04-17T22:16:47.234Z,12.78
2018-04-17T22:19:15.515Z,12.83
2018-04-17T22:21:43.808Z,12.82
2018-04-17T22:24:12.084Z,12.76
2018-04-17T22:26:40.371Z,12.57
2018-04-17T22:29:09.437Z,12.61
2018-04-17T22:31:37.716Z,12.20
2018-04-17T22:34:05.992Z,12.13
2018-04-17T22:36:35.533Z,12.26
2018-04-17T22:39:04.571Z,12.37
2018-04-17T22:41:33.621Z,12.35
2018-04-17T22:44:01.929Z,12.39
2018-04-17T22:46:30.195Z,12.42
2018-04-17T22:48:58.465Z,12.29
2018-04-17T22:51:26.765Z,11.85
2018-04-17T22:53:55.041Z,11.59
2018-04-17T22:56:23.344Z,11.61
2018-04-17T22:58:51.633Z,11.72
2018-04-17T23:01:19.900Z,11.83
2018-04-17T23:03:48.189Z,11.90
2018-04-17T23:06:17.240Z,11.92
2018-04-17T23:08:45.531Z,11.99
2018-04-17T23:11:13.816Z,12.08
2018-04-17T23:13:42.175Z,12.15
2018-04-17T23:16:10.461Z,12.14
2018-04-17T23:18:38.753Z,12.13
2018-04-17T23:21:07.063Z,12.09
2018-04-17T23:23:35.362Z,12.12
2018-04-17T23:26:03.652Z,12.09
2018-04-17T23:28:31.929Z,11.99
2018-04-17T23:31:00.225Z,11.92
2018-04-17T23:33:28.510Z,11.83
2018-04-17T23:35:56.789Z,11.78
2018-04-17T23:38:25.123Z,11.75
2018-04-17T23:40:53.449Z,11.68
2018-04-17T23:43:21.742Z,11.61
2018-04-17T23:45:50.831Z,11.57
2018-04-17T23:48:19.111Z,11.32
2018-04-17T23:50:48.173Z,10.93
2018-04-17T23:53:16.453Z,11.02
2018-04-17T23:55:44.730Z,10.88
2018-04-17T23:58:13.036Z,10.83
